Time;durP1;ratioP1;P1;durP2;ratioP2;P2;SDS_P1;SDS_P2;PMS_P1;PMS_P2;Temp;Humidity;BMP_temperature;BMP_pressure;BME280_temperature;BME280_humidity;BME280_pressure;Samples;Min_cycle;Max_cycle;Signal;HPM_P1;HPM_P2
2021/08/20 00:00:57;;;;;;;10.82;3.60;;;13.60;99.90;;;;;;5096386;28;20050;-77
2021/08/20 00:03:24;;;;;;;5.50;2.80;;;13.70;99.90;;;;;;5096119;28;20550;-76
2021/08/20 00:05:49;;;;;;;8.45;4.07;;;13.60;99.90;;;;;;5096323;28;20028;-77
2021/08/20 00:08:19;;;;;;;8.15;3.38;;;13.70;99.90;;;;;;5078507;28;20046;-78
2021/08/20 00:10:44;;;;;;;7.03;3.45;;;13.70;99.90;;;;;;5079004;28;20029;-79
2021/08/20 00:13:10;;;;;;;9.20;3.15;;;13.70;99.90;;;;;;5077917;28;20031;-76
2021/08/20 00:15:36;;;;;;;8.52;4.30;;;13.70;99.90;;;;;;5077942;28;20482;-76
2021/08/20 00:18:01;;;;;;;9.00;4.07;;;13.80;99.90;;;;;;5077900;28;20024;-76
2021/08/20 00:20:27;;;;;;;8.82;3.72;;;13.80;99.90;;;;;;5095901;28;20035;-76
2021/08/20 00:22:52;;;;;;;8.82;4.32;;;13.90;99.90;;;;;;5077627;28;20107;-78
2021/08/20 00:25:18;;;;;;;9.90;4.68;;;13.90;99.90;;;;;;5096785;28;20095;-76
2021/08/20 00:27:43;;;;;;;8.98;4.82;;;14.00;99.90;;;;;;5096651;28;20020;-78
2021/08/20 00:30:10;;;;;;;10.95;5.35;;;14.00;99.90;;;;;;5078058;28;20024;-78
2021/08/20 00:32:37;;;;;;;9.30;4.65;;;14.10;99.90;;;;;;5077894;28;20024;-77
2021/08/20 00:35:03;;;;;;;8.95;4.70;;;14.10;99.90;;;;;;5095695;28;20031;-76
2021/08/20 00:37:29;;;;;;;13.48;5.35;;;14.10;99.90;;;;;;5077653;28;20028;-77
2021/08/20 00:39:57;;;;;;;9.23;4.45;;;14.20;99.90;;;;;;5095826;28;20031;-77
2021/08/20 00:42:23;;;;;;;13.90;5.40;;;14.20;99.90;;;;;;5095422;28;20385;-76
2021/08/20 00:44:49;;;;;;;11.82;4.72;;;14.30;99.90;;;;;;5077815;28;20448;-80
2021/08/20 00:47:15;;;;;;;13.50;6.10;;;14.40;99.90;;;;;;5095896;28;20012;-78
2021/08/20 00:49:41;;;;;;;9.75;5.35;;;14.40;99.90;;;;;;5095767;28;20024;-76
2021/08/20 00:52:08;;;;;;;11.63;4.50;;;14.40;99.90;;;;;;5077403;28;20022;-76
2021/08/20 00:54:34;;;;;;;11.88;5.38;;;14.40;99.90;;;;;;5077572;28;20077;-76
2021/08/20 00:57:03;;;;;;;10.77;5.15;;;14.50;99.90;;;;;;5095621;28;20374;-80
2021/08/20 00:59:29;;;;;;;12.30;5.60;;;14.50;99.90;;;;;;5095971;28;20031;-76
2021/08/20 01:01:56;;;;;;;12.23;5.78;;;14.50;99.90;;;;;;5095163;28;20629;-77
2021/08/20 01:04:21;;;;;;;11.75;5.88;;;14.50;99.90;;;;;;5077843;28;20043;-79
2021/08/20 01:06:48;;;;;;;13.25;5.57;;;14.50;99.90;;;;;;5077609;28;20024;-80
2021/08/20 01:09:14;;;;;;;13.85;5.82;;;14.60;99.90;;;;;;5077148;28;20115;-77
2021/08/20 01:11:41;;;;;;;10.23;4.88;;;14.60;99.90;;;;;;5094940;28;20020;-75
2021/08/20 01:14:07;;;;;;;10.68;5.15;;;14.60;99.90;;;;;;5094878;28;20032;-75
2021/08/20 01:16:33;;;;;;;10.52;5.35;;;14.60;99.90;;;;;;5077073;28;20028;-77
2021/08/20 01:18:59;;;;;;;12.00;5.55;;;14.70;99.90;;;;;;5077624;28;20473;-77
2021/08/20 01:21:25;;;;;;;18.67;6.07;;;14.60;99.90;;;;;;5095300;28;20020;-79
2021/08/20 01:23:59;;;;;;;10.95;5.75;;;14.60;99.90;;;;;;5095128;28;20036;-77
2021/08/20 01:26:27;;;;;;;11.82;6.47;;;14.70;99.90;;;;;;5095309;28;20106;-79
2021/08/20 01:28:54;;;;;;;14.90;6.05;;;14.70;99.90;;;;;;5077081;28;20020;-77
2021/08/20 01:31:20;;;;;;;18.08;6.35;;;14.70;99.90;;;;;;5076704;28;20032;-76
2021/08/20 01:33:46;;;;;;;12.55;6.00;;;14.60;99.90;;;;;;5076884;28;20023;-78
2021/08/20 01:36:12;;;;;;;14.27;5.93;;;14.60;99.90;;;;;;5094905;28;20056;-77
2021/08/20 01:38:52;;;;;;;13.55;6.00;;;14.50;99.90;;;;;;5076681;28;20024;-78
2021/08/20 01:41:22;;;;;;;13.82;6.47;;;14.50;99.90;;;;;;5076848;28;20039;-79
2021/08/20 01:43:49;;;;;;;13.57;5.70;;;14.60;99.90;;;;;;5094858;28;20082;-78
2021/08/20 01:46:14;;;;;;;14.05;6.65;;;14.50;99.90;;;;;;5095280;28;20024;-77
2021/08/20 01:48:54;;;;;;;14.77;6.07;;;14.50;99.90;;;;;;5094462;28;20048;-76
2021/08/20 01:51:21;;;;;;;13.73;6.07;;;14.40;99.90;;;;;;5094817;28;20032;-78
2021/08/20 01:53:47;;;;;;;12.32;5.70;;;14.40;99.90;;;;;;5076767;28;20048;-80
2021/08/20 01:56:21;;;;;;;12.57;6.30;;;14.30;99.90;;;;;;5076816;28;20516;-76
2021/08/20 01:58:48;;;;;;;14.18;6.88;;;14.40;99.90;;;;;;5093724;28;20389;-76
2021/08/20 02:01:14;;;;;;;21.33;7.50;;;14.40;99.90;;;;;;5094306;28;20024;-78
2021/08/20 02:03:40;;;;;;;16.45;7.22;;;14.40;99.90;;;;;;5075789;28;20065;-75
2021/08/20 02:06:06;;;;;;;14.05;6.82;;;14.40;99.90;;;;;;5094520;28;20024;-77
2021/08/20 02:08:31;;;;;;;17.92;7.65;;;14.40;99.90;;;;;;5094118;28;20145;-76
2021/08/20 02:10:57;;;;;;;14.85;7.15;;;14.40;99.90;;;;;;5094113;28;20020;-78
2021/08/20 02:13:23;;;;;;;16.58;7.57;;;14.50;99.90;;;;;;5076397;28;20024;-75
2021/08/20 02:15:49;;;;;;;14.55;7.28;;;14.50;99.90;;;;;;5094391;28;20035;-80
2021/08/20 02:18:16;;;;;;;17.42;8.07;;;14.50;99.90;;;;;;5094210;28;20028;-80
2021/08/20 02:20:42;;;;;;;18.67;8.38;;;15.10;99.90;;;;;;5094685;28;20528;-80
2021/08/20 02:23:08;;;;;;;16.30;6.85;;;14.60;99.90;;;;;;5076217;28;20063;-80
2021/08/20 02:25:34;;;;;;;19.95;8.48;;;14.60;99.90;;;;;;5093857;28;20023;-76
2021/08/20 02:27:59;;;;;;;15.23;7.65;;;14.70;99.90;;;;;;5094035;28;20028;-75
2021/08/20 02:30:25;;;;;;;16.02;7.30;;;14.70;99.90;;;;;;5093834;28;20020;-77
2021/08/20 02:32:51;;;;;;;17.10;7.38;;;14.70;99.90;;;;;;5075433;28;20016;-76
2021/08/20 02:35:18;;;;;;;14.82;7.30;;;14.80;99.90;;;;;;5075579;28;20024;-77
2021/08/20 02:37:44;;;;;;;14.77;8.20;;;14.80;99.90;;;;;;5075468;28;20027;-77
2021/08/20 02:40:10;;;;;;;13.32;7.38;;;14.80;99.90;;;;;;5093758;28;20115;-78
2021/08/20 02:42:37;;;;;;;14.90;6.65;;;14.80;99.90;;;;;;5094243;28;20127;-78
2021/08/20 02:45:03;;;;;;;15.00;7.53;;;14.80;99.90;;;;;;5075770;28;20017;-79
2021/08/20 02:47:29;;;;;;;17.15;7.75;;;14.80;99.90;;;;;;5076087;28;20028;-77
2021/08/20 02:49:54;;;;;;;19.90;8.38;;;14.80;99.90;;;;;;5093410;28;20095;-77
2021/08/20 02:52:20;;;;;;;15.98;8.15;;;14.80;99.90;;;;;;5076181;28;20036;-77
2021/08/20 02:54:45;;;;;;;19.63;7.60;;;14.90;99.90;;;;;;5075508;28;20081;-77
2021/08/20 02:57:12;;;;;;;17.20;8.43;;;14.90;99.90;;;;;;5093553;28;20020;-77
2021/08/20 02:59:37;;;;;;;16.58;7.55;;;14.90;99.90;;;;;;5093895;28;20023;-78
2021/08/20 03:02:04;;;;;;;19.45;8.98;;;14.90;99.90;;;;;;5093538;28;20036;-75
2021/08/20 03:04:30;;;;;;;17.88;8.93;;;15.00;99.90;;;;;;5075076;28;20020;-76
2021/08/20 03:06:55;;;;;;;14.23;7.32;;;15.00;99.90;;;;;;5093463;28;20118;-78
2021/08/20 03:09:21;;;;;;;22.52;9.40;;;15.00;99.90;;;;;;5075613;28;20046;-78
2021/08/20 03:11:51;;;;;;;19.75;8.35;;;15.40;99.90;;;;;;5078944;28;20023;-76
2021/08/20 03:14:17;;;;;;;18.10;7.85;;;15.10;99.90;;;;;;5079321;28;20388;-76
2021/08/20 03:16:43;;;;;;;19.33;8.43;;;15.10;99.90;;;;;;5079338;28;20516;-80
2021/08/20 03:19:09;;;;;;;16.52;8.07;;;15.20;99.90;;;;;;5079258;28;20031;-75
2021/08/20 03:21:35;;;;;;;18.95;8.07;;;15.10;99.90;;;;;;5078962;28;20078;-77
2021/08/20 03:24:02;;;;;;;16.40;8.65;;;15.20;99.90;;;;;;5078853;28;20455;-76
2021/08/20 03:26:28;;;;;;;16.70;8.35;;;15.20;99.90;;;;;;5097598;28;20023;-80
2021/08/20 03:28:53;;;;;;;16.90;7.68;;;15.30;99.90;;;;;;5097638;28;20020;-77
2021/08/20 03:31:20;;;;;;;17.45;7.72;;;15.30;99.90;;;;;;5079671;28;20012;-77
2021/08/20 03:33:46;;;;;;;16.13;8.40;;;15.30;99.90;;;;;;5097380;28;20027;-77
2021/08/20 03:36:13;;;;;;;17.35;8.15;;;15.30;99.90;;;;;;5097262;28;20117;-79
2021/08/20 03:38:41;;;;;;;20.83;8.18;;;15.30;99.90;;;;;;5079569;28;20023;-79
2021/08/20 03:41:07;;;;;;;;;;;15.30;99.90;;;;;;5109315;22;20043;-79
2021/08/20 03:43:32;;;;;;;20.58;8.52;;;15.30;99.90;;;;;;5079444;28;19908;-76
2021/08/20 03:45:58;;;;;;;22.58;8.50;;;15.30;99.90;;;;;;5078944;28;20027;-79
2021/08/20 03:48:24;;;;;;;16.67;7.47;;;15.30;99.90;;;;;;5097523;28;20024;-79
2021/08/20 03:50:50;;;;;;;18.17;7.90;;;15.30;99.90;;;;;;5097072;28;20043;-78
2021/08/20 03:53:16;;;;;;;19.65;9.13;;;15.30;99.90;;;;;;5079064;28;20086;-79
2021/08/20 03:55:41;;;;;;;21.38;8.18;;;15.20;99.90;;;;;;5078875;28;20023;-77
2021/08/20 03:58:07;;;;;;;15.95;8.02;;;15.20;99.90;;;;;;5078736;28;20051;-78
2021/08/20 04:00:35;;;;;;;19.02;8.13;;;15.20;99.90;;;;;;5097300;28;20024;-77
2021/08/20 04:03:01;;;;;;;21.27;9.10;;;15.20;99.90;;;;;;5078654;28;20050;-79
2021/08/20 04:05:26;;;;;;;20.13;8.80;;;15.20;99.90;;;;;;5078607;28;20016;-79
2021/08/20 04:07:52;;;;;;;20.50;8.98;;;15.20;99.90;;;;;;5096670;28;20051;-77
2021/08/20 04:10:18;;;;;;;19.08;8.07;;;15.20;99.90;;;;;;5096816;28;20024;-78
2021/08/20 04:12:44;;;;;;;23.65;8.80;;;15.20;99.90;;;;;;5096410;28;20031;-81
2021/08/20 04:15:10;;;;;;;20.90;8.95;;;15.20;99.90;;;;;;5078291;28;20052;-76
2021/08/20 04:17:35;;;;;;;19.88;8.50;;;15.20;99.90;;;;;;5096153;28;20020;-76
2021/08/20 04:20:01;;;;;;;19.73;8.40;;;15.30;99.90;;;;;;5108185;22;20107;-78
2021/08/20 04:22:26;;;;;;;23.35;9.05;;;15.30;99.90;;;;;;5095814;28;20473;-80
2021/08/20 04:24:52;;;;;;;20.02;8.80;;;15.30;99.90;;;;;;5096298;28;20119;-79
2021/08/20 04:27:18;;;;;;;19.17;8.88;;;15.30;99.90;;;;;;5078313;28;20113;-78
2021/08/20 04:29:44;;;;;;;21.38;8.05;;;15.30;99.90;;;;;;5096284;28;20027;-78
2021/08/20 04:32:10;;;;;;;21.92;9.95;;;15.40;99.90;;;;;;5096511;28;20042;-79
2021/08/20 04:34:35;;;;;;;20.80;8.57;;;15.40;99.90;;;;;;5097257;28;20017;-78
2021/08/20 04:37:01;;;;;;;20.98;9.02;;;15.40;99.90;;;;;;5097999;28;20048;-78
2021/08/20 04:39:26;;;;;;;21.38;8.80;;;15.40;99.90;;;;;;5097246;28;20025;-78
2021/08/20 04:41:52;;;;;;;18.98;8.43;;;15.40;99.90;;;;;;5079017;28;20052;-78
2021/08/20 04:44:18;;;;;;;21.85;9.07;;;15.40;99.90;;;;;;5097426;28;20028;-78
2021/08/20 04:46:47;;;;;;;19.13;8.30;;;15.40;99.90;;;;;;5079216;28;20027;-78
2021/08/20 04:49:13;;;;;;;21.85;8.60;;;15.50;99.90;;;;;;5097140;28;20508;-78
2021/08/20 04:51:38;;;;;;;20.33;9.05;;;15.50;99.90;;;;;;5079116;28;20012;-78
2021/08/20 04:54:05;;;;;;;20.85;8.40;;;15.60;99.90;;;;;;5097129;28;20489;-78
2021/08/20 04:56:31;;;;;;;20.70;9.30;;;15.60;99.90;;;;;;5097553;28;20024;-78
2021/08/20 04:58:59;;;;;;;21.65;8.90;;;15.60;99.90;;;;;;5096125;28;20074;-81
2021/08/20 05:01:25;;;;;;;22.88;8.68;;;15.60;99.90;;;;;;5095807;28;20063;-81
2021/08/20 05:03:50;;;;;;;23.73;8.90;;;15.70;99.90;;;;;;5095413;28;20430;-77
2021/08/20 05:06:16;;;;;;;20.08;8.35;;;15.70;99.90;;;;;;5095586;28;20032;-79
2021/08/20 05:08:41;;;;;;;23.23;8.77;;;15.80;99.90;;;;;;5096401;28;20016;-80
2021/08/20 05:11:09;;;;;;;21.58;8.85;;;15.70;99.90;;;;;;5096119;28;20025;-81
2021/08/20 05:13:34;;;;;;;21.88;9.10;;;15.70;99.90;;;;;;5077770;28;20031;-80
2021/08/20 05:16:00;;;;;;;25.77;8.52;;;15.70;99.90;;;;;;5077858;28;20029;-80
2021/08/20 05:18:25;;;;;;;20.85;8.15;;;15.70;99.90;;;;;;5077714;28;20036;-80
2021/08/20 05:20:51;;;;;;;19.38;8.10;;;15.70;99.90;;;;;;5095237;28;20032;-81
2021/08/20 05:23:16;;;;;;;20.48;8.85;;;15.70;99.90;;;;;;5077183;28;20039;-80
2021/08/20 05:25:42;;;;;;;20.58;8.23;;;15.70;99.90;;;;;;5095286;28;20020;-80
2021/08/20 05:28:12;;;;;;;23.30;8.80;;;15.70;99.90;;;;;;5077252;28;20020;-80
2021/08/20 05:30:38;;;;;;;18.42;7.75;;;15.80;99.90;;;;;;5077264;28;20009;-80
2021/08/20 05:33:04;;;;;;;21.88;7.72;;;15.80;99.90;;;;;;5076501;28;20071;-80
2021/08/20 05:35:29;;;;;;;20.38;8.88;;;15.80;99.90;;;;;;5095425;28;20481;-80
2021/08/20 05:37:55;;;;;;;15.20;7.68;;;15.80;99.90;;;;;;5077406;28;20016;-80
2021/08/20 05:40:21;;;;;;;18.08;8.43;;;16.10;99.90;;;;;;5095537;28;20016;-78
2021/08/20 05:42:46;;;;;;;18.58;8.00;;;15.80;99.90;;;;;;5078025;28;20024;-78
2021/08/20 05:45:12;;;;;;;20.33;8.45;;;16.00;99.90;;;;;;5096592;28;20020;-78
2021/08/20 05:47:38;;;;;;;20.15;7.10;;;15.80;99.90;;;;;;5078148;28;20016;-78
2021/08/20 05:50:05;;;;;;;21.77;8.85;;;15.90;99.90;;;;;;5096106;28;20477;-78
2021/08/20 05:52:33;;;;;;;18.60;7.07;;;15.90;99.90;;;;;;5077790;28;20036;-78
2021/08/20 05:55:01;;;;;;;21.98;7.88;;;15.90;99.90;;;;;;5078074;28;20523;-78
2021/08/20 05:57:27;;;;;;;19.13;8.77;;;16.00;99.90;;;;;;5077431;28;20031;-78
2021/08/20 05:59:52;;;;;;;22.98;9.20;;;16.20;99.90;;;;;;5078157;28;20402;-78
2021/08/20 06:02:18;;;;;;;21.83;8.40;;;16.30;99.90;;;;;;5077689;28;20028;-78
2021/08/20 06:04:43;;;;;;;18.45;7.38;;;16.40;99.90;;;;;;5096219;28;20099;-78
2021/08/20 06:07:09;;;;;;;20.77;8.70;;;16.40;99.90;;;;;;5096409;28;20030;-78
2021/08/20 06:09:34;;;;;;;17.88;6.88;;;16.50;99.90;;;;;;5095960;28;20047;-78
2021/08/20 06:12:01;;;;;;;20.23;8.30;;;16.50;99.90;;;;;;5077551;28;20069;-78
2021/08/20 06:14:26;;;;;;;17.48;7.45;;;16.50;99.90;;;;;;5094874;28;20095;-80
2021/08/20 06:16:55;;;;;;;18.35;7.93;;;16.50;99.90;;;;;;5076083;28;20119;-76
2021/08/20 06:19:24;;;;;;;;;;;16.60;99.90;;;;;;5076498;28;20016;-76
2021/08/20 06:21:49;;;;;;;18.50;8.13;;;16.70;99.90;;;;;;5094814;28;19912;-79
2021/08/20 06:24:15;;;;;;;17.48;6.13;;;16.90;99.90;;;;;;5095188;28;20035;-79
2021/08/20 06:26:41;;;;;;;14.20;6.68;;;17.20;99.90;;;;;;5095250;28;20074;-79
2021/08/20 06:29:06;;;;;;;17.20;6.97;;;17.30;99.90;;;;;;5095512;28;20027;-79
2021/08/20 06:31:32;;;;;;;21.98;7.15;;;17.40;99.90;;;;;;5095025;28;20107;-79
2021/08/20 06:33:58;;;;;;;20.45;8.25;;;17.60;99.90;;;;;;5095155;28;20034;-79
2021/08/20 06:36:24;;;;;;;16.98;7.07;;;17.60;99.90;;;;;;5095652;28;20095;-79
2021/08/20 06:38:50;;;;;;;19.33;6.90;;;17.60;99.90;;;;;;5076859;28;20077;-79
2021/08/20 06:41:16;;;;;;;19.00;7.10;;;17.50;99.90;;;;;;5094891;28;20465;-79
2021/08/20 06:43:42;;;;;;;19.25;7.38;;;17.40;99.90;;;;;;5076285;28;20031;-79
2021/08/20 06:46:07;;;;;;;19.73;8.25;;;17.40;99.90;;;;;;5094861;28;20363;-79
2021/08/20 06:48:33;;;;;;;19.25;7.93;;;17.40;99.90;;;;;;5076231;28;20030;-79
2021/08/20 06:50:58;;;;;;;19.13;7.60;;;17.20;99.90;;;;;;5093927;28;20016;-76
2021/08/20 06:53:24;;;;;;;16.80;6.85;;;17.20;99.90;;;;;;5075337;28;20107;-76
2021/08/20 06:55:50;;;;;;;20.92;7.35;;;17.20;99.90;;;;;;5093566;28;20038;-80
2021/08/20 06:58:15;;;;;;;19.98;7.85;;;17.30;99.90;;;;;;5095127;28;20028;-79
2021/08/20 07:00:41;;;;;;;16.92;6.82;;;17.40;99.90;;;;;;5094786;28;20114;-78
2021/08/20 07:03:06;;;;;;;21.75;7.80;;;17.50;99.90;;;;;;5075770;28;20030;-76
2021/08/20 07:05:33;;;;;;;15.57;6.50;;;17.60;99.90;;;;;;5075290;28;20020;-78
2021/08/20 07:07:59;;;;;;;15.68;6.47;;;17.80;99.90;;;;;;5076076;28;20016;-79
2021/08/20 07:10:24;;;;;;;14.60;6.40;;;17.80;99.90;;;;;;5093932;28;20519;-78
2021/08/20 07:12:50;;;;;;;14.77;6.78;;;17.90;99.90;;;;;;5093623;28;20418;-79
2021/08/20 07:15:15;;;;;;;17.60;7.47;;;18.00;99.90;;;;;;5093671;28;20035;-79
2021/08/20 07:17:41;;;;;;;12.85;5.60;;;18.10;99.90;;;;;;5093850;28;20513;-80
2021/08/20 07:20:08;;;;;;;13.82;5.95;;;18.10;99.90;;;;;;5093704;28;20536;-78
2021/08/20 07:22:33;;;;;;;11.63;5.93;;;18.10;99.90;;;;;;5093577;28;20035;-76
2021/08/20 07:24:59;;;;;;;14.65;6.28;;;18.10;99.90;;;;;;5105856;22;20451;-76
2021/08/20 07:27:24;;;;;;;15.88;5.72;;;18.10;99.90;;;;;;5093326;28;20031;-76
2021/08/20 07:29:50;;;;;;;11.77;5.68;;;18.20;99.90;;;;;;5093595;28;20381;-78
2021/08/20 07:32:16;;;;;;;12.02;5.20;;;18.30;99.90;;;;;;5093758;28;20020;-76
2021/08/20 07:34:44;;;;;;;14.57;5.97;;;18.40;99.90;;;;;;5105510;22;20051;-76
2021/08/20 07:37:10;;;;;;;;;;;19.30;99.90;;;;;;5093422;28;20020;-76
2021/08/20 07:39:39;;;;;;;11.55;5.60;;;18.50;99.90;;;;;;5093203;28;19904;-76
2021/08/20 07:42:05;;;;;;;12.77;6.15;;;18.70;99.90;;;;;;5092972;28;20030;-76
2021/08/20 07:44:32;;;;;;;10.73;5.72;;;18.70;99.90;;;;;;5093488;28;20017;-80
2021/08/20 07:46:57;;;;;;;11.98;6.25;;;18.90;99.90;;;;;;5075664;28;20024;-79
2021/08/20 07:49:23;;;;;;;9.75;5.13;;;18.90;99.90;;;;;;5075529;28;20384;-79
2021/08/20 07:51:49;;;;;;;11.98;5.78;;;18.90;99.90;;;;;;5075545;28;20450;-78
2021/08/20 07:54:15;;;;;;;9.85;5.30;;;19.00;99.90;;;;;;5075352;28;20055;-77
2021/08/20 07:56:40;;;;;;;9.43;4.72;;;19.10;99.90;;;;;;5077046;28;20375;-78
2021/08/20 07:59:06;;;;;;;10.20;4.90;;;19.20;99.90;;;;;;5078996;28;20020;-78
2021/08/20 08:01:31;;;;;;;9.27;4.70;;;19.10;99.90;;;;;;5096934;28;20028;-78
2021/08/20 08:03:57;;;;;;;8.32;4.82;;;19.20;99.90;;;;;;5078694;28;20028;-78
2021/08/20 08:06:27;;;;;;;8.98;4.88;;;19.10;99.90;;;;;;5097346;28;20020;-77
2021/08/20 08:08:53;;;;;;;9.82;4.93;;;19.20;99.90;;;;;;5097524;28;20024;-76
2021/08/20 08:11:19;;;;;;;9.43;5.03;;;19.20;99.90;;;;;;5078803;28;20481;-77
2021/08/20 08:13:45;;;;;;;12.40;6.57;;;19.20;99.90;;;;;;5097006;28;20049;-76
2021/08/20 08:16:12;;;;;;;10.32;5.15;;;19.20;99.90;;;;;;5078671;28;20111;-77
2021/08/20 08:18:37;;;;;;;11.05;5.57;;;19.30;99.90;;;;;;5078735;28;20420;-79
2021/08/20 08:21:03;;;;;;;10.10;5.50;;;19.40;99.90;;;;;;5097310;28;20104;-79
2021/08/20 08:23:29;;;;;;;9.57;5.40;;;19.40;99.90;;;;;;5078782;28;20017;-79
2021/08/20 08:25:55;;;;;;;9.50;5.20;;;19.30;99.90;;;;;;5097440;28;20081;-79
2021/08/20 08:28:22;;;;;;;9.35;5.35;;;19.30;99.90;;;;;;5097063;28;20048;-78
2021/08/20 08:30:49;;;;;;;10.05;5.18;;;19.40;99.90;;;;;;5096689;28;20016;-80
2021/08/20 08:33:15;;;;;;;7.88;4.10;;;19.50;99.90;;;;;;5078279;28;20028;-78
2021/08/20 08:35:41;;;;;;;6.72;4.40;;;19.70;99.90;;;;;;5096636;28;20059;-78
2021/08/20 08:40:38;;;;;;;7.93;3.97;;;19.80;99.90;;;;;;5054532;28;20053;-76
2021/08/20 08:43:04;;;;;;;10.35;4.45;;;19.80;99.90;;;;;;5037675;28;20395;-77
2021/08/20 08:45:30;;;;;;;9.43;5.13;;;19.90;99.90;;;;;;5056212;28;20025;-76
2021/08/20 08:47:56;;;;;;;9.07;4.80;;;20.10;99.90;;;;;;5055470;28;20036;-76
2021/08/20 08:50:23;;;;;;;7.97;4.30;;;20.00;99.90;;;;;;5055701;28;20021;-77
2021/08/20 08:52:49;;;;;;;8.55;4.05;;;20.20;99.90;;;;;;5037969;28;20509;-77
2021/08/20 08:55:15;;;;;;;9.48;4.72;;;20.40;99.90;;;;;;5055883;28;20018;-76
2021/08/20 08:57:40;;;;;;;8.35;4.82;;;20.50;99.90;;;;;;5037637;28;20056;-75
2021/08/20 09:00:07;;;;;;;8.75;5.10;;;20.50;99.90;;;;;;5056419;28;20390;-80
2021/08/20 09:02:34;;;;;;;8.45;4.20;;;20.50;99.90;;;;;;5037488;28;20040;-76
2021/08/20 09:05:00;;;;;;;5.50;3.50;;;20.50;99.90;;;;;;5055735;28;20393;-76
2021/08/20 09:07:29;;;;;;;5.90;2.60;;;20.50;99.90;;;;;;5037304;28;20041;-77
2021/08/20 09:10:23;;;;;;;8.05;3.60;;;20.50;99.90;;;;;;5037325;28;20017;-77
2021/08/20 09:12:54;;;;;;;5.95;3.15;;;20.50;99.90;;;;;;5037327;28;20055;-77
2021/08/20 09:15:23;;;;;;;5.47;2.55;;;20.60;99.90;;;;;;5037502;28;20043;-77
2021/08/20 09:17:51;;;;;;;5.10;2.75;;;20.80;99.90;;;;;;5055515;28;20031;-77
2021/08/20 09:20:18;;;;;;;5.13;2.55;;;21.00;99.90;;;;;;5055025;28;20021;-77
2021/08/20 09:22:45;;;;;;;4.68;2.40;;;21.20;99.90;;;;;;5054873;28;20024;-77
2021/08/20 09:25:43;;;;;;;4.00;2.17;;;21.30;99.90;;;;;;5055654;28;20025;-77
2021/08/20 09:28:34;;;;;;;6.13;2.05;;;21.40;99.90;;;;;;5037252;28;20060;-77
2021/08/20 09:31:03;;;;;;;3.40;1.45;;;21.20;99.90;;;;;;5037273;28;20025;-77
2021/08/20 09:33:47;;;;;;;3.15;1.85;;;21.00;99.90;;;;;;5055168;28;20045;-77
2021/08/20 09:36:14;;;;;;;4.57;2.10;;;20.80;99.90;;;;;;5054739;28;20505;-77
2021/08/20 09:38:43;;;;;;;7.43;2.50;;;20.50;99.90;;;;;;5036614;28;20025;-77
2021/08/20 09:41:15;;;;;;;9.00;2.35;;;20.50;99.90;;;;;;5055038;28;20429;-77
2021/08/20 09:43:42;;;;;;;5.10;2.13;;;20.90;99.90;;;;;;5054632;28;20095;-77
2021/08/20 09:46:11;;;;;;;2.92;1.70;;;20.90;99.90;;;;;;5054885;28;20025;-77
2021/08/20 09:48:59;;;;;;;6.55;2.55;;;21.10;99.90;;;;;;5054824;28;20390;-79
2021/08/20 09:51:30;;;;;;;4.28;1.92;;;21.60;99.90;;;;;;5054902;28;20434;-77
2021/08/20 09:54:10;;;;;;;4.18;1.27;;;22.00;99.90;;;;;;5054587;28;20108;-77
2021/08/20 09:56:36;;;;;;;4.75;2.28;;;22.20;99.90;;;;;;5054444;28;20024;-76
2021/08/20 09:59:07;;;;;;;4.63;1.67;;;22.40;99.90;;;;;;5036393;28;20548;-75
2021/08/20 10:01:35;;;;;;;3.65;1.50;;;22.50;99.90;;;;;;5054715;28;20029;-76
2021/08/20 10:04:04;;;;;;;5.15;1.58;;;22.30;99.90;;;;;;5054440;28;20102;-77
2021/08/20 10:06:35;;;;;;;2.50;1.53;;;22.10;99.90;;;;;;5036643;28;20021;-78
2021/08/20 10:09:10;;;;;;;2.92;1.83;;;22.20;99.90;;;;;;5036281;28;20548;-76
2021/08/20 10:11:40;;;;;;;3.88;1.88;;;22.20;99.90;;;;;;5096725;22;20032;-77
2021/08/20 10:14:07;;;;;;;11.77;3.00;;;22.20;99.90;;;;;;5074617;28;20067;-78
2021/08/20 10:16:35;;;;;;;3.83;2.05;;;22.20;99.90;;;;;;5074702;28;20028;-80
2021/08/20 10:19:01;;;;;;;5.47;3.67;;;22.30;99.90;;;;;;5056540;28;20124;-79
2021/08/20 10:21:32;;;;;;;3.00;2.28;;;22.30;99.90;;;;;;5056581;28;20021;-79
2021/08/20 10:23:58;;;;;;;3.65;2.25;;;22.40;99.90;;;;;;5056041;28;20090;-76
2021/08/20 10:26:24;;;;;;;4.80;2.25;;;22.60;99.90;;;;;;5073772;28;20024;-78
2021/08/20 10:28:51;;;;;;;5.32;1.75;;;22.70;99.90;;;;;;5074351;28;20074;-77
2021/08/20 10:31:18;;;;;;;1.73;1.60;;;22.80;99.90;;;;;;5056290;28;20363;-80
2021/08/20 10:33:44;;;;;;;2.90;1.25;;;22.90;99.90;;;;;;5074477;28;20031;-76
2021/08/20 10:36:10;;;;;;;2.67;1.40;;;23.10;99.90;;;;;;5080212;22;20417;-76
2021/08/20 10:38:38;;;;;;;2.05;1.23;;;22.80;99.90;;;;;;5076498;28;20031;-79
2021/08/20 10:41:08;;;;;;;;;;;22.70;99.90;;;;;;5094542;28;20107;-76
2021/08/20 10:43:59;;;;;;;7.50;1.77;;;22.80;99.90;;;;;;5075608;28;20396;-79
2021/08/20 10:46:34;;;;;;;5.35;1.10;;;23.00;99.90;;;;;;5076255;28;20473;-79
2021/08/20 10:49:12;;;;;;;2.22;1.02;;;23.30;99.90;;;;;;5094573;28;20035;-77
2021/08/20 10:51:49;;;;;;;1.45;0.73;;;23.30;99.90;;;;;;5094041;28;20016;-76
2021/08/20 10:54:30;;;;;;;1.73;0.73;;;23.10;99.90;;;;;;5093686;28;20043;-77
2021/08/20 10:56:55;;;;;;;2.55;1.20;;;22.80;99.90;;;;;;5094114;28;20028;-77
2021/08/20 10:59:36;;;;;;;2.60;0.90;;;22.90;99.90;;;;;;5094056;28;20031;-79
2021/08/20 11:02:20;;;;;;;1.63;0.82;;;23.10;99.90;;;;;;5075613;28;20020;-79
2021/08/20 11:05:03;;;;;;;2.03;0.73;;;23.30;99.90;;;;;;5105530;22;20570;-77
2021/08/20 11:07:41;;;;;;;2.85;1.42;;;23.50;99.90;;;;;;5093298;28;20016;-76
2021/08/20 11:10:10;;;;;;;1.73;0.70;;;23.90;99.90;;;;;;5075638;28;20025;-78
2021/08/20 11:12:38;;;;;;;;;;;23.90;99.90;;;;;;5094565;28;20107;-79
2021/08/20 11:15:25;;;;;;;2.15;0.80;;;23.70;99.90;;;;;;5094281;28;19904;-78
2021/08/20 11:17:51;;;;;;;3.33;0.73;;;23.30;99.90;;;;;;5076596;28;20028;-77
2021/08/20 11:20:23;;;;;;;3.35;0.85;;;23.10;99.90;;;;;;5094012;28;20031;-77
2021/08/20 11:23:13;;;;;;;2.28;0.88;;;23.10;99.90;;;;;;5094104;28;20115;-78
2021/08/20 11:25:49;;;;;;;9.80;0.85;;;23.40;99.90;;;;;;5075576;28;20020;-76
2021/08/20 11:28:22;;;;;;;1.73;0.82;;;23.60;99.90;;;;;;5075245;28;20016;-77
2021/08/20 11:31:08;;;;;;;1.13;0.70;;;23.90;99.90;;;;;;5093991;28;20020;-77
2021/08/20 11:33:49;;;;;;;2.45;0.40;;;23.90;99.90;;;;;;5097029;28;20055;-76
2021/08/20 11:36:21;;;;;;;0.82;0.32;;;23.80;99.90;;;;;;5078882;28;20034;-76
2021/08/20 11:38:56;;;;;;;3.05;0.25;;;23.70;99.90;;;;;;5078788;28;20039;-76
2021/08/20 11:41:26;;;;;;;1.88;0.35;;;23.50;99.90;;;;;;5078854;28;20377;-76
2021/08/20 11:43:56;;;;;;;2.33;0.40;;;23.40;99.90;;;;;;5078450;28;20032;-76
2021/08/20 11:46:27;;;;;;;0.65;0.30;;;23.40;99.90;;;;;;5097358;28;20466;-76
2021/08/20 11:48:54;;;;;;;1.35;0.20;;;23.60;99.90;;;;;;5096812;28;20028;-76
2021/08/20 11:51:46;;;;;;;1.95;0.55;;;23.80;99.90;;;;;;5096716;28;20047;-76
2021/08/20 11:54:15;;;;;;;4.22;0.40;;;24.00;99.90;;;;;;5092688;28;20036;-76
2021/08/20 11:56:54;;;;;;;1.00;0.63;;;24.10;99.90;;;;;;5078338;28;20478;-76
2021/08/20 11:59:22;;;;;;;1.73;0.70;;;24.40;99.90;;;;;;5096834;28;20038;-76
2021/08/20 12:01:54;;;;;;;2.30;1.00;;;24.40;99.90;;;;;;5096477;28;20016;-77
2021/08/20 12:04:22;;;;;;;3.92;1.02;;;24.20;99.90;;;;;;5096261;28;20058;-76
2021/08/20 12:06:48;;;;;;;1.23;0.50;;;24.10;99.90;;;;;;5096468;28;20470;-76
2021/08/20 12:09:15;;;;;;;1.55;0.70;;;24.00;99.90;;;;;;5096299;28;20023;-76
2021/08/20 12:11:43;;;;;;;1.33;0.65;;;24.00;99.90;;;;;;5078072;28;20016;-78
2021/08/20 12:14:35;;;;;;;2.13;0.82;;;23.80;99.90;;;;;;5098324;28;20477;-78
2021/08/20 12:17:01;;;;;;;2.38;0.60;;;23.60;99.90;;;;;;5074047;28;20043;-77
2021/08/20 12:19:40;;;;;;;3.88;0.75;;;23.50;99.90;;;;;;5078697;28;20118;-80
2021/08/20 12:22:08;;;;;;;2.55;0.63;;;23.30;99.90;;;;;;5079004;28;20134;-76
2021/08/20 12:24:40;;;;;;;2.75;0.70;;;23.20;99.90;;;;;;5078817;28;20042;-76
2021/08/20 12:27:16;;;;;;;2.83;0.55;;;23.00;99.90;;;;;;5097494;28;20381;-77
2021/08/20 12:29:57;;;;;;;5.35;0.50;;;22.80;99.90;;;;;;5078703;28;20020;-79
2021/08/20 12:32:22;;;;;;;1.13;0.40;;;22.60;99.90;;;;;;5078187;28;20020;-76
2021/08/20 12:34:58;;;;;;;1.17;0.50;;;22.60;99.90;;;;;;5096402;28;20023;-77
2021/08/20 12:37:23;;;;;;;0.82;0.30;;;22.60;99.90;;;;;;5079618;28;20541;-79
2021/08/20 12:40:00;;;;;;;1.80;0.20;;;22.50;99.90;;;;;;5097426;28;20091;-77
2021/08/20 12:42:27;;;;;;;2.10;0.40;;;22.60;99.90;;;;;;5096701;28;20028;-80
2021/08/20 12:45:07;;;;;;;1.85;0.73;;;22.60;99.90;;;;;;5078159;28;20104;-77
2021/08/20 12:47:33;;;;;;;1.13;0.40;;;22.50;99.90;;;;;;5078243;28;20492;-77
2021/08/20 12:50:09;;;;;;;1.20;0.55;;;22.40;99.90;;;;;;5077894;28;20023;-76